sensor_id;sensor_type;location;lat;lon;timestamp;P1;durP1;ratioP1;P2;durP2;ratioP2
9698;SDS011;10089;47.876;8.346;2023-05-20T00:01:22;9.40;;;5.82;;
9698;SDS011;10089;47.876;8.346;2023-05-20T00:03:48;9.80;;;6.10;;
9698;SDS011;10089;47.876;8.346;2023-05-20T00:06:14;11.43;;;6.35;;
9698;SDS011;10089;47.876;8.346;2023-05-20T00:08:40;10.82;;;6.15;;
9698;SDS011;10089;47.876;8.346;2023-05-20T00:11:05;10.98;;;6.40;;
9698;SDS011;10089;47.876;8.346;2023-05-20T00:13:31;12.23;;;6.82;;
9698;SDS011;10089;47.876;8.346;2023-05-20T00:15:59;10.23;;;5.88;;
9698;SDS011;10089;47.876;8.346;2023-05-20T00:18:25;6.65;;;5.78;;
9698;SDS011;10089;47.876;8.346;2023-05-20T00:20:51;9.23;;;5.80;;
9698;SDS011;10089;47.876;8.346;2023-05-20T00:23:18;11.45;;;6.30;;
9698;SDS011;10089;47.876;8.346;2023-05-20T00:25:44;10.35;;;5.95;;
9698;SDS011;10089;47.876;8.346;2023-05-20T00:28:10;9.52;;;5.60;;
9698;SDS011;10089;47.876;8.346;2023-05-20T00:30:38;10.15;;;6.10;;
9698;SDS011;10089;47.876;8.346;2023-05-20T00:33:07;9.85;;;6.15;;
9698;SDS011;10089;47.876;8.346;2023-05-20T00:35:33;10.10;;;6.30;;
9698;SDS011;10089;47.876;8.346;2023-05-20T00:37:59;9.73;;;6.63;;
9698;SDS011;10089;47.876;8.346;2023-05-20T00:40:25;11.02;;;6.05;;
9698;SDS011;10089;47.876;8.346;2023-05-20T00:42:51;8.10;;;5.82;;
9698;SDS011;10089;47.876;8.346;2023-05-20T00:45:16;8.52;;;5.40;;
9698;SDS011;10089;47.876;8.346;2023-05-20T00:47:42;8.73;;;5.88;;
9698;SDS011;10089;47.876;8.346;2023-05-20T00:50:08;8.43;;;5.72;;
9698;SDS011;10089;47.876;8.346;2023-05-20T00:52:35;9.95;;;5.72;;
9698;SDS011;10089;47.876;8.346;2023-05-20T00:55:01;8.20;;;5.60;;
9698;SDS011;10089;47.876;8.346;2023-05-20T00:57:27;8.35;;;5.57;;
9698;SDS011;10089;47.876;8.346;2023-05-20T00:59:53;11.00;;;6.53;;
9698;SDS011;10089;47.876;8.346;2023-05-20T01:02:20;9.38;;;5.47;;
9698;SDS011;10089;47.876;8.346;2023-05-20T01:04:46;8.70;;;4.97;;
9698;SDS011;10089;47.876;8.346;2023-05-20T01:07:12;7.68;;;5.10;;
9698;SDS011;10089;47.876;8.346;2023-05-20T01:09:40;10.15;;;5.32;;
9698;SDS011;10089;47.876;8.346;2023-05-20T01:14:57;7.10;;;4.97;;
9698;SDS011;10089;47.876;8.346;2023-05-20T01:17:29;7.15;;;5.82;;
9698;SDS011;10089;47.876;8.346;2023-05-20T01:20:00;8.20;;;4.97;;
9698;SDS011;10089;47.876;8.346;2023-05-20T01:22:26;7.57;;;5.30;;
9698;SDS011;10089;47.876;8.346;2023-05-20T01:24:53;8.93;;;5.03;;
9698;SDS011;10089;47.876;8.346;2023-05-20T01:27:19;8.07;;;5.20;;
9698;SDS011;10089;47.876;8.346;2023-05-20T01:29:50;7.82;;;5.07;;
9698;SDS011;10089;47.876;8.346;2023-05-20T01:32:33;10.50;;;5.35;;
9698;SDS011;10089;47.876;8.346;2023-05-20T01:35:03;9.40;;;5.10;;
9698;SDS011;10089;47.876;8.346;2023-05-20T01:37:30;7.35;;;4.97;;
9698;SDS011;10089;47.876;8.346;2023-05-20T01:39:56;8.95;;;5.22;;
9698;SDS011;10089;47.876;8.346;2023-05-20T01:42:24;9.43;;;4.90;;
9698;SDS011;10089;47.876;8.346;2023-05-20T01:44:52;8.70;;;4.72;;
9698;SDS011;10089;47.876;8.346;2023-05-20T01:47:18;8.63;;;4.18;;
9698;SDS011;10089;47.876;8.346;2023-05-20T01:49:43;6.03;;;4.80;;
9698;SDS011;10089;47.876;8.346;2023-05-20T01:52:13;8.77;;;4.65;;
9698;SDS011;10089;47.876;8.346;2023-05-20T01:54:39;7.35;;;5.00;;
9698;SDS011;10089;47.876;8.346;2023-05-20T01:57:05;5.68;;;4.85;;
9698;SDS011;10089;47.876;8.346;2023-05-20T01:59:30;8.70;;;5.15;;
9698;SDS011;10089;47.876;8.346;2023-05-20T02:01:56;7.07;;;4.57;;
9698;SDS011;10089;47.876;8.346;2023-05-20T02:04:22;6.95;;;4.78;;
9698;SDS011;10089;47.876;8.346;2023-05-20T02:06:48;8.77;;;4.80;;
9698;SDS011;10089;47.876;8.346;2023-05-20T02:09:13;6.55;;;4.60;;
9698;SDS011;10089;47.876;8.346;2023-05-20T02:11:40;12.70;;;4.72;;
9698;SDS011;10089;47.876;8.346;2023-05-20T02:14:05;9.13;;;5.30;;
9698;SDS011;10089;47.876;8.346;2023-05-20T02:16:31;11.38;;;5.63;;
9698;SDS011;10089;47.876;8.346;2023-05-20T02:18:57;7.70;;;4.97;;
9698;SDS011;10089;47.876;8.346;2023-05-20T02:21:23;7.85;;;4.18;;
9698;SDS011;10089;47.876;8.346;2023-05-20T02:23:49;5.93;;;4.72;;
9698;SDS011;10089;47.876;8.346;2023-05-20T02:26:16;8.77;;;4.97;;
9698;SDS011;10089;47.876;8.346;2023-05-20T02:28:41;5.13;;;4.25;;
9698;SDS011;10089;47.876;8.346;2023-05-20T02:31:11;5.82;;;4.50;;
9698;SDS011;10089;47.876;8.346;2023-05-20T02:33:37;7.03;;;4.47;;
9698;SDS011;10089;47.876;8.346;2023-05-20T02:36:03;5.90;;;4.45;;
9698;SDS011;10089;47.876;8.346;2023-05-20T02:38:29;7.55;;;4.28;;
9698;SDS011;10089;47.876;8.346;2023-05-20T02:40:56;8.48;;;4.28;;
9698;SDS011;10089;47.876;8.346;2023-05-20T02:43:23;10.65;;;4.90;;
9698;SDS011;10089;47.876;8.346;2023-05-20T02:45:49;8.88;;;4.97;;
9698;SDS011;10089;47.876;8.346;2023-05-20T02:48:15;6.35;;;4.32;;
9698;SDS011;10089;47.876;8.346;2023-05-20T02:50:41;12.02;;;4.53;;
9698;SDS011;10089;47.876;8.346;2023-05-20T02:53:08;9.13;;;4.57;;
9698;SDS011;10089;47.876;8.346;2023-05-20T02:55:34;5.15;;;3.83;;
9698;SDS011;10089;47.876;8.346;2023-05-20T02:58:00;7.55;;;4.80;;
9698;SDS011;10089;47.876;8.346;2023-05-20T03:00:26;11.55;;;4.60;;
9698;SDS011;10089;47.876;8.346;2023-05-20T03:02:54;6.40;;;4.53;;
9698;SDS011;10089;47.876;8.346;2023-05-20T03:05:20;10.70;;;5.05;;
9698;SDS011;10089;47.876;8.346;2023-05-20T03:07:46;5.93;;;4.97;;
9698;SDS011;10089;47.876;8.346;2023-05-20T03:10:13;8.40;;;5.05;;
9698;SDS011;10089;47.876;8.346;2023-05-20T03:12:39;10.13;;;5.15;;
9698;SDS011;10089;47.876;8.346;2023-05-20T03:15:05;8.90;;;5.20;;
9698;SDS011;10089;47.876;8.346;2023-05-20T03:17:31;9.63;;;5.22;;
9698;SDS011;10089;47.876;8.346;2023-05-20T03:19:57;10.75;;;5.05;;
9698;SDS011;10089;47.876;8.346;2023-05-20T03:22:22;7.43;;;5.72;;
9698;SDS011;10089;47.876;8.346;2023-05-20T03:24:48;7.05;;;5.45;;
9698;SDS011;10089;47.876;8.346;2023-05-20T03:27:16;13.02;;;5.10;;
9698;SDS011;10089;47.876;8.346;2023-05-20T03:29:42;7.97;;;5.10;;
9698;SDS011;10089;47.876;8.346;2023-05-20T03:32:08;8.90;;;5.43;;
9698;SDS011;10089;47.876;8.346;2023-05-20T03:34:34;8.45;;;5.63;;
9698;SDS011;10089;47.876;8.346;2023-05-20T03:37:00;10.75;;;5.03;;
9698;SDS011;10089;47.876;8.346;2023-05-20T03:39:25;8.10;;;5.50;;
9698;SDS011;10089;47.876;8.346;2023-05-20T03:41:51;14.23;;;6.30;;
9698;SDS011;10089;47.876;8.346;2023-05-20T03:44:17;5.90;;;5.28;;
9698;SDS011;10089;47.876;8.346;2023-05-20T03:46:43;7.43;;;5.88;;
9698;SDS011;10089;47.876;8.346;2023-05-20T03:49:09;21.65;;;6.45;;
9698;SDS011;10089;47.876;8.346;2023-05-20T03:51:35;11.88;;;5.90;;
9698;SDS011;10089;47.876;8.346;2023-05-20T03:54:00;8.80;;;5.57;;
9698;SDS011;10089;47.876;8.346;2023-05-20T03:56:26;8.10;;;5.55;;
9698;SDS011;10089;47.876;8.346;2023-05-20T03:58:52;10.93;;;6.53;;
9698;SDS011;10089;47.876;8.346;2023-05-20T04:01:18;8.05;;;6.50;;
9698;SDS011;10089;47.876;8.346;2023-05-20T04:03:45;5.88;;;5.25;;
9698;SDS011;10089;47.876;8.346;2023-05-20T04:06:12;9.30;;;5.85;;
9698;SDS011;10089;47.876;8.346;2023-05-20T04:08:38;11.18;;;6.50;;
9698;SDS011;10089;47.876;8.346;2023-05-20T04:11:04;9.07;;;6.10;;
9698;SDS011;10089;47.876;8.346;2023-05-20T04:13:30;7.80;;;5.65;;
9698;SDS011;10089;47.876;8.346;2023-05-20T04:15:55;7.53;;;6.32;;
9698;SDS011;10089;47.876;8.346;2023-05-20T04:18:21;9.18;;;6.03;;
9698;SDS011;10089;47.876;8.346;2023-05-20T04:20:47;8.20;;;6.38;;
9698;SDS011;10089;47.876;8.346;2023-05-20T04:23:14;8.52;;;6.45;;
9698;SDS011;10089;47.876;8.346;2023-05-20T04:25:39;8.52;;;7.18;;
9698;SDS011;10089;47.876;8.346;2023-05-20T04:28:06;9.55;;;7.03;;
9698;SDS011;10089;47.876;8.346;2023-05-20T04:30:34;8.70;;;7.00;;
9698;SDS011;10089;47.876;8.346;2023-05-20T04:33:00;7.20;;;6.25;;
9698;SDS011;10089;47.876;8.346;2023-05-20T04:35:30;13.15;;;6.90;;
9698;SDS011;10089;47.876;8.346;2023-05-20T04:38:05;9.13;;;6.50;;
9698;SDS011;10089;47.876;8.346;2023-05-20T04:40:39;11.18;;;6.80;;
9698;SDS011;10089;47.876;8.346;2023-05-20T07:01:04;13.65;;;8.45;;
9698;SDS011;10089;47.876;8.346;2023-05-20T07:03:30;12.88;;;8.55;;
9698;SDS011;10089;47.876;8.346;2023-05-20T07:06:11;12.32;;;9.13;;
9698;SDS011;10089;47.876;8.346;2023-05-20T07:08:49;9.88;;;8.57;;
9698;SDS011;10089;47.876;8.346;2023-05-20T07:11:24;13.65;;;9.68;;
9698;SDS011;10089;47.876;8.346;2023-05-20T07:13:59;12.05;;;8.82;;
9698;SDS011;10089;47.876;8.346;2023-05-20T07:16:25;12.18;;;9.43;;
9698;SDS011;10089;47.876;8.346;2023-05-20T07:19:01;14.02;;;9.57;;
9698;SDS011;10089;47.876;8.346;2023-05-20T07:21:39;13.27;;;9.95;;
9698;SDS011;10089;47.876;8.346;2023-05-20T07:24:26;14.63;;;9.65;;
9698;SDS011;10089;47.876;8.346;2023-05-20T07:27:00;12.23;;;9.65;;
9698;SDS011;10089;47.876;8.346;2023-05-20T07:29:30;10.52;;;9.10;;
9698;SDS011;10089;47.876;8.346;2023-05-20T07:31:59;12.07;;;9.07;;
9698;SDS011;10089;47.876;8.346;2023-05-20T07:34:31;10.65;;;9.40;;
9698;SDS011;10089;47.876;8.346;2023-05-20T07:36:59;13.18;;;9.25;;
9698;SDS011;10089;47.876;8.346;2023-05-20T07:39:41;14.93;;;9.68;;
9698;SDS011;10089;47.876;8.346;2023-05-20T07:42:13;13.50;;;10.63;;
9698;SDS011;10089;47.876;8.346;2023-05-20T07:44:53;15.77;;;10.98;;
9698;SDS011;10089;47.876;8.346;2023-05-20T07:47:39;12.57;;;10.07;;
9698;SDS011;10089;47.876;8.346;2023-05-20T07:50:10;14.98;;;10.80;;
9698;SDS011;10089;47.876;8.346;2023-05-20T07:52:36;15.13;;;11.30;;
9698;SDS011;10089;47.876;8.346;2023-05-20T07:55:04;13.88;;;11.10;;
9698;SDS011;10089;47.876;8.346;2023-05-20T07:57:46;11.98;;;10.20;;
9698;SDS011;10089;47.876;8.346;2023-05-20T08:00:17;13.40;;;10.32;;
9698;SDS011;10089;47.876;8.346;2023-05-20T08:02:46;14.10;;;10.52;;
9698;SDS011;10089;47.876;8.346;2023-05-20T08:05:25;17.45;;;11.23;;
9698;SDS011;10089;47.876;8.346;2023-05-20T08:07:57;14.10;;;10.15;;
9698;SDS011;10089;47.876;8.346;2023-05-20T08:10:31;15.50;;;11.02;;
9698;SDS011;10089;47.876;8.346;2023-05-20T08:15:31;14.32;;;10.43;;
9698;SDS011;10089;47.876;8.346;2023-05-20T08:17:57;11.95;;;9.82;;
9698;SDS011;10089;47.876;8.346;2023-05-20T08:20:23;12.77;;;10.32;;
9698;SDS011;10089;47.876;8.346;2023-05-20T08:22:50;12.20;;;10.20;;
9698;SDS011;10089;47.876;8.346;2023-05-20T08:25:16;16.08;;;11.23;;
9698;SDS011;10089;47.876;8.346;2023-05-20T08:27:42;13.52;;;10.25;;
9698;SDS011;10089;47.876;8.346;2023-05-20T08:30:08;11.77;;;9.25;;
9698;SDS011;10089;47.876;8.346;2023-05-20T08:32:35;14.48;;;10.38;;
9698;SDS011;10089;47.876;8.346;2023-05-20T08:35:01;12.40;;;10.15;;
9698;SDS011;10089;47.876;8.346;2023-05-20T08:37:28;13.00;;;10.15;;
9698;SDS011;10089;47.876;8.346;2023-05-20T08:39:54;12.73;;;9.98;;
9698;SDS011;10089;47.876;8.346;2023-05-20T08:42:21;18.98;;;10.50;;
9698;SDS011;10089;47.876;8.346;2023-05-20T08:44:48;15.25;;;9.73;;
9698;SDS011;10089;47.876;8.346;2023-05-20T08:47:21;11.20;;;9.55;;
9698;SDS011;10089;47.876;8.346;2023-05-20T08:49:47;12.93;;;9.88;;
9698;SDS011;10089;47.876;8.346;2023-05-20T08:52:13;13.35;;;9.77;;
9698;SDS011;10089;47.876;8.346;2023-05-20T08:54:43;12.90;;;9.32;;
9698;SDS011;10089;47.876;8.346;2023-05-20T08:57:11;12.38;;;10.00;;
9698;SDS011;10089;47.876;8.346;2023-05-20T08:59:47;10.63;;;9.18;;
9698;SDS011;10089;47.876;8.346;2023-05-20T09:02:13;12.82;;;9.05;;
9698;SDS011;10089;47.876;8.346;2023-05-20T09:04:39;10.68;;;8.65;;
9698;SDS011;10089;47.876;8.346;2023-05-20T09:07:05;16.00;;;9.30;;
9698;SDS011;10089;47.876;8.346;2023-05-20T09:09:31;11.10;;;9.23;;
9698;SDS011;10089;47.876;8.346;2023-05-20T09:11:58;12.82;;;9.07;;
9698;SDS011;10089;47.876;8.346;2023-05-20T09:14:25;10.23;;;8.90;;
9698;SDS011;10089;47.876;8.346;2023-05-20T09:16:52;10.00;;;8.65;;
9698;SDS011;10089;47.876;8.346;2023-05-20T09:19:21;13.38;;;9.00;;
9698;SDS011;10089;47.876;8.346;2023-05-20T09:21:48;10.13;;;8.77;;
9698;SDS011;10089;47.876;8.346;2023-05-20T09:24:18;10.52;;;8.95;;
9698;SDS011;10089;47.876;8.346;2023-05-20T09:26:46;10.88;;;9.30;;
9698;SDS011;10089;47.876;8.346;2023-05-20T09:29:12;11.20;;;9.48;;
9698;SDS011;10089;47.876;8.346;2023-05-20T09:31:38;12.38;;;8.73;;
9698;SDS011;10089;47.876;8.346;2023-05-20T09:34:04;10.10;;;8.38;;
9698;SDS011;10089;47.876;8.346;2023-05-20T09:36:32;11.85;;;8.98;;
9698;SDS011;10089;47.876;8.346;2023-05-20T09:39:00;10.85;;;8.07;;
9698;SDS011;10089;47.876;8.346;2023-05-20T09:41:31;12.55;;;9.55;;
9698;SDS011;10089;47.876;8.346;2023-05-20T09:44:00;11.77;;;8.82;;
9698;SDS011;10089;47.876;8.346;2023-05-20T09:46:28;11.70;;;10.30;;
9698;SDS011;10089;47.876;8.346;2023-05-20T09:48:55;9.23;;;8.30;;
9698;SDS011;10089;47.876;8.346;2023-05-20T09:51:22;11.50;;;8.05;;
9698;SDS011;10089;47.876;8.346;2023-05-20T09:53:48;17.17;;;10.70;;
9698;SDS011;10089;47.876;8.346;2023-05-20T09:56:16;11.00;;;8.30;;
9698;SDS011;10089;47.876;8.346;2023-05-20T09:58:44;11.23;;;8.50;;
9698;SDS011;10089;47.876;8.346;2023-05-20T10:01:29;10.77;;;8.32;;
9698;SDS011;10089;47.876;8.346;2023-05-20T10:03:55;11.00;;;8.27;;
9698;SDS011;10089;47.876;8.346;2023-05-20T10:18:28;10.95;;;8.15;;
9698;SDS011;10089;47.876;8.346;2023-05-20T10:23:38;11.45;;;7.32;;
9698;SDS011;10089;47.876;8.346;2023-05-20T10:26:05;9.00;;;8.10;;
9698;SDS011;10089;47.876;8.346;2023-05-20T10:28:39;9.85;;;8.15;;
9698;SDS011;10089;47.876;8.346;2023-05-20T10:34:21;8.40;;;7.32;;
9698;SDS011;10089;47.876;8.346;2023-05-20T10:37:01;10.70;;;7.88;;
9698;SDS011;10089;47.876;8.346;2023-05-20T10:39:28;10.95;;;8.50;;
9698;SDS011;10089;47.876;8.346;2023-05-20T10:47:28;9.57;;;8.27;;
9698;SDS011;10089;47.876;8.346;2023-05-20T10:50:01;9.27;;;7.65;;
9698;SDS011;10089;47.876;8.346;2023-05-20T10:52:33;8.88;;;7.82;;
9698;SDS011;10089;47.876;8.346;2023-05-20T10:55:01;9.43;;;8.07;;
9698;SDS011;10089;47.876;8.346;2023-05-20T10:57:50;10.00;;;7.07;;
9698;SDS011;10089;47.876;8.346;2023-05-20T11:00:19;8.68;;;7.75;;
9698;SDS011;10089;47.876;8.346;2023-05-20T11:02:47;10.60;;;8.00;;
9698;SDS011;10089;47.876;8.346;2023-05-20T11:05:17;8.32;;;7.35;;
9698;SDS011;10089;47.876;8.346;2023-05-20T11:07:44;8.93;;;7.95;;
9698;SDS011;10089;47.876;8.346;2023-05-20T11:10:10;7.57;;;6.75;;
9698;SDS011;10089;47.876;8.346;2023-05-20T11:12:36;8.57;;;7.78;;
9698;SDS011;10089;47.876;8.346;2023-05-20T11:15:05;8.00;;;6.57;;
9698;SDS011;10089;47.876;8.346;2023-05-20T11:17:37;7.72;;;6.90;;
9698;SDS011;10089;47.876;8.346;2023-05-20T11:20:15;8.82;;;6.80;;
9698;SDS011;10089;47.876;8.346;2023-05-20T11:22:44;11.82;;;8.73;;
9698;SDS011;10089;47.876;8.346;2023-05-20T11:25:10;8.73;;;7.53;;
9698;SDS011;10089;47.876;8.346;2023-05-20T11:27:39;11.68;;;7.28;;
9698;SDS011;10089;47.876;8.346;2023-05-20T11:30:05;9.38;;;7.13;;
9698;SDS011;10089;47.876;8.346;2023-05-20T11:35:02;8.65;;;7.85;;
9698;SDS011;10089;47.876;8.346;2023-05-20T11:37:29;8.23;;;7.43;;
9698;SDS011;10089;47.876;8.346;2023-05-20T11:40:02;8.73;;;7.25;;
9698;SDS011;10089;47.876;8.346;2023-05-20T11:42:31;8.55;;;7.70;;
9698;SDS011;10089;47.876;8.346;2023-05-20T11:45:01;9.18;;;7.70;;
9698;SDS011;10089;47.876;8.346;2023-05-20T11:47:27;8.02;;;7.13;;
9698;SDS011;10089;47.876;8.346;2023-05-20T11:49:52;8.35;;;7.55;;
9698;SDS011;10089;47.876;8.346;2023-05-20T11:52:20;8.38;;;7.47;;
9698;SDS011;10089;47.876;8.346;2023-05-20T11:54:52;8.82;;;7.57;;
9698;SDS011;10089;47.876;8.346;2023-05-20T11:57:18;11.07;;;7.85;;
9698;SDS011;10089;47.876;8.346;2023-05-20T11:59:45;14.55;;;7.65;;
9698;SDS011;10089;47.876;8.346;2023-05-20T12:02:12;8.45;;;7.47;;
9698;SDS011;10089;47.876;8.346;2023-05-20T12:04:37;9.82;;;7.60;;
9698;SDS011;10089;47.876;8.346;2023-05-20T12:07:03;8.38;;;7.57;;
9698;SDS011;10089;47.876;8.346;2023-05-20T12:09:33;10.15;;;6.97;;
9698;SDS011;10089;47.876;8.346;2023-05-20T12:11:59;8.07;;;7.13;;
9698;SDS011;10089;47.876;8.346;2023-05-20T12:14:25;8.70;;;6.93;;
9698;SDS011;10089;47.876;8.346;2023-05-20T12:16:51;8.52;;;7.00;;
9698;SDS011;10089;47.876;8.346;2023-05-20T12:19:20;7.45;;;6.65;;
9698;SDS011;10089;47.876;8.346;2023-05-20T12:21:46;7.35;;;6.60;;
9698;SDS011;10089;47.876;8.346;2023-05-20T12:24:12;9.80;;;7.25;;
9698;SDS011;10089;47.876;8.346;2023-05-20T12:26:38;8.02;;;6.93;;
9698;SDS011;10089;47.876;8.346;2023-05-20T12:29:04;8.23;;;7.43;;
9698;SDS011;10089;47.876;8.346;2023-05-20T12:31:33;7.57;;;6.75;;
9698;SDS011;10089;47.876;8.346;2023-05-20T12:34:02;7.47;;;6.30;;
9698;SDS011;10089;47.876;8.346;2023-05-20T12:36:27;6.95;;;6.25;;
9698;SDS011;10089;47.876;8.346;2023-05-20T12:38:53;7.22;;;6.43;;
9698;SDS011;10089;47.876;8.346;2023-05-20T12:41:19;9.25;;;6.18;;
9698;SDS011;10089;47.876;8.346;2023-05-20T12:43:48;6.80;;;6.10;;
9698;SDS011;10089;47.876;8.346;2023-05-20T12:46:17;8.98;;;6.55;;
9698;SDS011;10089;47.876;8.346;2023-05-20T12:48:43;7.00;;;6.20;;
9698;SDS011;10089;47.876;8.346;2023-05-20T12:51:11;9.43;;;6.80;;
9698;SDS011;10089;47.876;8.346;2023-05-20T12:53:37;6.93;;;6.15;;
9698;SDS011;10089;47.876;8.346;2023-05-20T12:56:03;7.68;;;6.35;;
9698;SDS011;10089;47.876;8.346;2023-05-20T12:58:29;7.57;;;6.57;;
9698;SDS011;10089;47.876;8.346;2023-05-20T13:00:55;8.10;;;6.15;;
9698;SDS011;10089;47.876;8.346;2023-05-20T13:03:20;7.88;;;7.07;;
9698;SDS011;10089;47.876;8.346;2023-05-20T13:05:46;8.38;;;7.32;;
9698;SDS011;10089;47.876;8.346;2023-05-20T13:08:12;9.90;;;7.20;;
9698;SDS011;10089;47.876;8.346;2023-05-20T13:10:38;7.80;;;6.65;;
9698;SDS011;10089;47.876;8.346;2023-05-20T13:13:04;10.82;;;6.57;;
9698;SDS011;10089;47.876;8.346;2023-05-20T13:15:30;7.38;;;6.68;;
9698;SDS011;10089;47.876;8.346;2023-05-20T13:17:57;6.25;;;5.40;;
9698;SDS011;10089;47.876;8.346;2023-05-20T13:20:25;6.93;;;5.50;;
9698;SDS011;10089;47.876;8.346;2023-05-20T13:22:51;8.45;;;6.22;;
9698;SDS011;10089;47.876;8.346;2023-05-20T13:25:16;7.53;;;6.25;;
9698;SDS011;10089;47.876;8.346;2023-05-20T13:27:42;9.70;;;6.55;;
9698;SDS011;10089;47.876;8.346;2023-05-20T13:30:08;8.05;;;5.80;;
9698;SDS011;10089;47.876;8.346;2023-05-20T13:32:37;6.07;;;5.47;;
9698;SDS011;10089;47.876;8.346;2023-05-20T13:35:02;7.97;;;6.28;;
9698;SDS011;10089;47.876;8.346;2023-05-20T13:37:28;6.70;;;5.40;;
9698;SDS011;10089;47.876;8.346;2023-05-20T13:39:54;6.80;;;6.10;;
9698;SDS011;10089;47.876;8.346;2023-05-20T13:42:20;6.70;;;5.95;;
9698;SDS011;10089;47.876;8.346;2023-05-20T13:44:46;7.18;;;5.78;;
9698;SDS011;10089;47.876;8.346;2023-05-20T13:49:53;7.00;;;6.13;;
9698;SDS011;10089;47.876;8.346;2023-05-20T13:54:48;6.60;;;5.78;;
9698;SDS011;10089;47.876;8.346;2023-05-20T13:57:14;7.75;;;6.40;;
9698;SDS011;10089;47.876;8.346;2023-05-20T13:59:40;9.10;;;6.78;;
9698;SDS011;10089;47.876;8.346;2023-05-20T14:02:06;7.07;;;5.82;;
9698;SDS011;10089;47.876;8.346;2023-05-20T14:04:32;6.75;;;5.70;;
9698;SDS011;10089;47.876;8.346;2023-05-20T14:07:02;5.90;;;5.30;;
9698;SDS011;10089;47.876;8.346;2023-05-20T14:09:29;6.30;;;5.70;;
9698;SDS011;10089;47.876;8.346;2023-05-20T14:11:54;7.18;;;5.88;;
9698;SDS011;10089;47.876;8.346;2023-05-20T14:14:20;7.10;;;6.40;;
9698;SDS011;10089;47.876;8.346;2023-05-20T14:16:46;7.80;;;5.82;;
9698;SDS011;10089;47.876;8.346;2023-05-20T14:19:15;9.27;;;5.82;;
9698;SDS011;10089;47.876;8.346;2023-05-20T14:21:41;8.40;;;5.38;;
9698;SDS011;10089;47.876;8.346;2023-05-20T14:24:07;8.20;;;5.93;;
9698;SDS011;10089;47.876;8.346;2023-05-20T14:26:32;5.75;;;5.15;;
9698;SDS011;10089;47.876;8.346;2023-05-20T14:28:58;6.85;;;5.65;;
9698;SDS011;10089;47.876;8.346;2023-05-20T14:31:25;6.68;;;5.55;;
9698;SDS011;10089;47.876;8.346;2023-05-20T14:33:51;7.50;;;5.45;;
9698;SDS011;10089;47.876;8.346;2023-05-20T14:36:17;7.43;;;6.00;;
9698;SDS011;10089;47.876;8.346;2023-05-20T14:38:43;6.50;;;5.90;;
9698;SDS011;10089;47.876;8.346;2023-05-20T14:41:08;9.57;;;5.70;;
9698;SDS011;10089;47.876;8.346;2023-05-20T14:43:34;6.15;;;5.55;;
9698;SDS011;10089;47.876;8.346;2023-05-20T14:46:01;6.57;;;5.50;;
9698;SDS011;10089;47.876;8.346;2023-05-20T14:48:27;8.13;;;5.00;;
9698;SDS011;10089;47.876;8.346;2023-05-20T14:50:54;9.15;;;5.90;;
9698;SDS011;10089;47.876;8.346;2023-05-20T14:53:20;5.82;;;5.05;;
9698;SDS011;10089;47.876;8.346;2023-05-20T14:55:46;5.80;;;5.30;;
9698;SDS011;10089;47.876;8.346;2023-05-20T14:58:12;5.97;;;4.88;;
9698;SDS011;10089;47.876;8.346;2023-05-20T15:00:39;5.22;;;4.60;;
9698;SDS011;10089;47.876;8.346;2023-05-20T15:03:05;5.85;;;4.97;;
9698;SDS011;10089;47.876;8.346;2023-05-20T15:05:31;6.55;;;5.40;;
9698;SDS011;10089;47.876;8.346;2023-05-20T15:07:57;5.60;;;5.10;;
9698;SDS011;10089;47.876;8.346;2023-05-20T15:10:22;7.13;;;5.68;;
9698;SDS011;10089;47.876;8.346;2023-05-20T15:12:48;5.70;;;5.20;;
9698;SDS011;10089;47.876;8.346;2023-05-20T15:15:15;10.68;;;5.80;;
9698;SDS011;10089;47.876;8.346;2023-05-20T15:17:41;5.82;;;4.65;;
9698;SDS011;10089;47.876;8.346;2023-05-20T15:20:07;5.90;;;5.30;;
9698;SDS011;10089;47.876;8.346;2023-05-20T15:22:33;7.43;;;5.55;;
9698;SDS011;10089;47.876;8.346;2023-05-20T15:24:59;6.30;;;5.35;;
9698;SDS011;10089;47.876;8.346;2023-05-20T15:27:25;5.57;;;5.00;;
9698;SDS011;10089;47.876;8.346;2023-05-20T15:29:50;6.55;;;5.82;;
9698;SDS011;10089;47.876;8.346;2023-05-20T15:32:16;5.70;;;4.90;;
9698;SDS011;10089;47.876;8.346;2023-05-20T15:34:43;7.07;;;4.82;;
9698;SDS011;10089;47.876;8.346;2023-05-20T15:37:10;5.05;;;4.47;;
9698;SDS011;10089;47.876;8.346;2023-05-20T15:39:36;5.78;;;5.18;;
9698;SDS011;10089;47.876;8.346;2023-05-20T15:42:05;8.85;;;5.10;;
9698;SDS011;10089;47.876;8.346;2023-05-20T15:44:31;7.70;;;5.55;;
9698;SDS011;10089;47.876;8.346;2023-05-20T15:46:57;6.82;;;5.13;;
9698;SDS011;10089;47.876;8.346;2023-05-20T15:49:23;5.32;;;4.82;;
9698;SDS011;10089;47.876;8.346;2023-05-20T15:51:48;6.55;;;5.50;;
9698;SDS011;10089;47.876;8.346;2023-05-20T15:54:14;7.97;;;5.50;;
9698;SDS011;10089;47.876;8.346;2023-05-20T15:56:40;5.70;;;5.05;;
9698;SDS011;10089;47.876;8.346;2023-05-20T15:59:06;5.82;;;5.00;;
9698;SDS011;10089;47.876;8.346;2023-05-20T16:01:31;6.75;;;5.05;;
9698;SDS011;10089;47.876;8.346;2023-05-20T16:03:57;6.05;;;5.15;;
9698;SDS011;10089;47.876;8.346;2023-05-20T16:06:23;5.38;;;4.88;;
9698;SDS011;10089;47.876;8.346;2023-05-20T16:08:49;5.55;;;5.05;;
9698;SDS011;10089;47.876;8.346;2023-05-20T16:11:14;7.70;;;5.20;;
9698;SDS011;10089;47.876;8.346;2023-05-20T16:13:40;6.32;;;5.30;;
9698;SDS011;10089;47.876;8.346;2023-05-20T16:16:06;7.10;;;5.05;;
9698;SDS011;10089;47.876;8.346;2023-05-20T16:18:32;5.38;;;4.88;;
9698;SDS011;10089;47.876;8.346;2023-05-20T16:20:57;6.28;;;5.68;;
9698;SDS011;10089;47.876;8.346;2023-05-20T16:23:24;7.07;;;5.40;;
9698;SDS011;10089;47.876;8.346;2023-05-20T16:25:50;6.82;;;5.03;;
9698;SDS011;10089;47.876;8.346;2023-05-20T16:28:16;6.28;;;5.30;;
9698;SDS011;10089;47.876;8.346;2023-05-20T16:30:41;10.95;;;6.20;;
9698;SDS011;10089;47.876;8.346;2023-05-20T16:33:07;7.07;;;6.25;;
9698;SDS011;10089;47.876;8.346;2023-05-20T16:35:33;8.77;;;7.88;;
9698;SDS011;10089;47.876;8.346;2023-05-20T16:37:59;14.07;;;10.50;;
9698;SDS011;10089;47.876;8.346;2023-05-20T16:40:24;10.43;;;8.65;;
9698;SDS011;10089;47.876;8.346;2023-05-20T16:42:51;13.77;;;11.27;;
9698;SDS011;10089;47.876;8.346;2023-05-20T16:45:17;18.27;;;13.73;;
9698;SDS011;10089;47.876;8.346;2023-05-20T16:47:43;25.00;;;20.45;;
9698;SDS011;10089;47.876;8.346;2023-05-20T16:50:09;25.63;;;19.80;;
9698;SDS011;10089;47.876;8.346;2023-05-20T16:52:35;11.57;;;9.02;;
9698;SDS011;10089;47.876;8.346;2023-05-20T16:55:04;15.80;;;13.27;;
9698;SDS011;10089;47.876;8.346;2023-05-20T16:57:32;10.32;;;8.65;;
9698;SDS011;10089;47.876;8.346;2023-05-20T16:59:58;13.75;;;11.60;;
9698;SDS011;10089;47.876;8.346;2023-05-20T17:02:24;11.80;;;10.55;;
9698;SDS011;10089;47.876;8.346;2023-05-20T17:04:50;8.40;;;7.60;;
9698;SDS011;10089;47.876;8.346;2023-05-20T17:07:15;11.50;;;8.98;;
9698;SDS011;10089;47.876;8.346;2023-05-20T17:09:41;9.43;;;7.75;;
9698;SDS011;10089;47.876;8.346;2023-05-20T17:12:07;8.57;;;7.30;;
9698;SDS011;10089;47.876;8.346;2023-05-20T17:14:33;8.30;;;6.50;;
9698;SDS011;10089;47.876;8.346;2023-05-20T17:19:29;12.63;;;6.38;;
9698;SDS011;10089;47.876;8.346;2023-05-20T17:21:55;15.60;;;8.77;;
9698;SDS011;10089;47.876;8.346;2023-05-20T17:24:20;19.63;;;13.68;;
9698;SDS011;10089;47.876;8.346;2023-05-20T17:26:46;17.63;;;10.35;;
9698;SDS011;10089;47.876;8.346;2023-05-20T17:29:12;13.80;;;9.82;;
9698;SDS011;10089;47.876;8.346;2023-05-20T17:31:37;18.45;;;13.30;;
9698;SDS011;10089;47.876;8.346;2023-05-20T17:34:03;12.93;;;9.30;;
9698;SDS011;10089;47.876;8.346;2023-05-20T17:36:29;9.90;;;7.05;;
9698;SDS011;10089;47.876;8.346;2023-05-20T17:38:57;7.80;;;6.80;;
9698;SDS011;10089;47.876;8.346;2023-05-20T17:41:23;8.15;;;6.82;;
9698;SDS011;10089;47.876;8.346;2023-05-20T17:43:50;8.38;;;7.20;;
9698;SDS011;10089;47.876;8.346;2023-05-20T17:46:16;7.05;;;6.35;;
9698;SDS011;10089;47.876;8.346;2023-05-20T17:48:41;13.30;;;9.35;;
9698;SDS011;10089;47.876;8.346;2023-05-20T17:51:08;24.77;;;14.13;;
9698;SDS011;10089;47.876;8.346;2023-05-20T17:53:34;15.63;;;12.15;;